createdAt,value
2023-01-23T00:01:25.332Z,103835.00
2023-01-23T00:11:46.958Z,103844.00
2023-01-23T00:22:09.703Z,103844.00
2023-01-23T00:32:31.663Z,103848.00
2023-01-23T00:42:55.139Z,103844.00
2023-01-23T00:53:18.046Z,103845.00
2023-01-23T01:03:41.125Z,103864.00
2023-01-23T01:14:03.133Z,103866.00
2023-01-23T01:24:27.043Z,103878.00
2023-01-23T01:34:48.467Z,103893.00
2023-01-23T01:45:44.293Z,103894.00
2023-01-23T01:56:11.567Z,103903.00
2023-01-23T02:06:33.603Z,103902.00
2023-01-23T02:17:01.041Z,103904.00
2023-01-23T02:27:23.853Z,103904.00
2023-01-23T02:37:48.396Z,103910.00
2023-01-23T02:48:12.382Z,103911.00
2023-01-23T02:58:51.103Z,103929.00
2023-01-23T03:09:16.087Z,103939.00
2023-01-23T03:19:38.951Z,103946.00
2023-01-23T03:30:14.185Z,103957.00
2023-01-23T03:40:54.075Z,103957.00
2023-01-23T03:51:17.778Z,103977.00
2023-01-23T04:01:40.519Z,103990.00
2023-01-23T04:12:04.300Z,103987.00
2023-01-23T04:22:29.188Z,104001.00
2023-01-23T04:32:52.172Z,103993.00
2023-01-23T04:43:15.184Z,103999.00
2023-01-23T04:53:42.483Z,104008.00
2023-01-23T05:04:04.604Z,104016.00
2023-01-23T05:14:29.141Z,104012.00
2023-01-23T05:24:51.007Z,104013.00
2023-01-23T05:35:14.770Z,103999.00
2023-01-23T05:45:38.212Z,104017.00
2023-01-23T05:56:09.128Z,104032.00
2023-01-23T06:06:40.462Z,104044.00
2023-01-23T06:17:06.008Z,104048.00
2023-01-23T06:27:27.874Z,104052.00
2023-01-23T06:37:51.346Z,104063.00
2023-01-23T06:48:15.239Z,104088.00
2023-01-23T06:58:39.765Z,104085.00
2023-01-23T07:09:09.563Z,104091.00
2023-01-23T07:19:33.459Z,104099.00
2023-01-23T07:29:56.815Z,104103.00
2023-01-23T07:40:20.199Z,104098.00
2023-01-23T07:50:41.705Z,104114.00
2023-01-23T08:01:10.098Z,104108.00
2023-01-23T08:11:34.227Z,104120.00
2023-01-23T08:21:57.237Z,104125.00
2023-01-23T08:32:18.893Z,104138.00
2023-01-23T08:42:42.357Z,104166.00
2023-01-23T08:53:04.155Z,104167.00
2023-01-23T09:03:27.709Z,104185.00
2023-01-23T09:13:50.189Z,104195.00
2023-01-23T09:24:13.576Z,104204.00
2023-01-23T09:34:35.557Z,104223.00
2023-01-23T09:45:02.854Z,104228.00
2023-01-23T09:55:30.861Z,104220.00
2023-01-23T10:16:50.749Z,104212.00
2023-01-23T10:27:31.214Z,104235.00
2023-01-23T10:38:11.833Z,104235.00
2023-01-23T10:48:48.577Z,104227.00
2023-01-23T10:59:26.884Z,104216.00
2023-01-23T11:10:09.129Z,104224.00
2023-01-23T11:20:42.854Z,104211.00
2023-01-23T11:31:15.457Z,104201.00
2023-01-23T11:43:24.713Z,104208.00
2023-01-23T11:52:59.657Z,104204.00
2023-01-23T12:04:03.428Z,104193.00
2023-01-23T12:14:32.101Z,104172.00
2023-01-23T12:25:04.864Z,104169.00
2023-01-23T12:35:36.875Z,104164.00
2023-01-23T12:46:28.244Z,104150.00
2023-01-23T12:57:01.406Z,104139.00
2023-01-23T13:07:43.447Z,104163.00
2023-01-23T13:18:30.512Z,104164.00
2023-01-23T13:29:07.255Z,104172.00
2023-01-23T13:39:33.337Z,104170.00
2023-01-23T14:22:30.202Z,104180.00
2023-01-23T14:32:52.916Z,104184.00
2023-01-23T14:43:21.218Z,104194.00
2023-01-23T14:53:56.413Z,104199.00
2023-01-23T15:04:27.718Z,104212.00
2023-01-23T15:15:00.114Z,104221.00
2023-01-23T15:25:30.126Z,104227.00
2023-01-23T15:35:53.276Z,104245.00
2023-01-23T15:46:16.405Z,104235.00
2023-01-23T15:56:39.128Z,104247.00
2023-01-23T16:07:07.791Z,104246.00
2023-01-23T16:17:29.046Z,104261.00
2023-01-23T16:27:52.205Z,104265.00
2023-01-23T16:38:22.373Z,104266.00
2023-01-23T16:48:44.954Z,104276.00
2023-01-23T16:59:08.799Z,104267.00
2023-01-23T17:09:32.044Z,104272.00
2023-01-23T17:19:55.073Z,104287.00
2023-01-23T17:30:19.769Z,104289.00
2023-01-23T17:40:41.677Z,104293.00
2023-01-23T17:51:18.068Z,104295.00
2023-01-23T18:02:03.406Z,104303.00
2023-01-23T18:12:37.228Z,104300.00
2023-01-23T18:22:59.533Z,104294.00
2023-01-23T18:33:46.969Z,104297.00
2023-01-23T18:44:20.865Z,104298.00
2023-01-23T18:54:54.484Z,104298.00
2023-01-23T19:05:29.076Z,104305.00
2023-01-23T19:16:01.955Z,104287.00
2023-01-23T19:26:25.357Z,104304.00
2023-01-23T19:36:49.320Z,104304.00
2023-01-23T19:47:14.536Z,104302.00
2023-01-23T19:57:37.668Z,104315.00
2023-01-23T20:08:01.010Z,104328.00
2023-01-23T20:18:24.417Z,104329.00
2023-01-23T20:28:49.204Z,104325.00
2023-01-23T20:39:14.205Z,104346.00
2023-01-23T20:49:37.277Z,104340.00
2023-01-23T21:00:00.427Z,104339.00
2023-01-23T21:10:22.372Z,104343.00
2023-01-23T21:20:46.631Z,104353.00
2023-01-23T21:31:10.260Z,104369.00
2023-01-23T21:41:33.715Z,104354.00
2023-01-23T21:51:55.397Z,104361.00
2023-01-23T22:02:22.770Z,104354.00
2023-01-23T22:12:48.651Z,104351.00
2023-01-23T22:23:17.793Z,104351.00
2023-01-23T22:33:41.910Z,104349.00
2023-01-23T22:44:08.356Z,104364.00
2023-01-23T22:54:30.510Z,104370.00
2023-01-23T23:04:53.966Z,104364.00
2023-01-23T23:15:16.356Z,104371.00
2023-01-23T23:25:43.683Z,104365.00
2023-01-23T23:36:05.751Z,104366.00
2023-01-23T23:46:29.839Z,104343.00
2023-01-23T23:56:51.637Z,104336.00
